sensor_id;sensor_type;location;lat;lon;timestamp;P1;durP1;ratioP1;P2;durP2;ratioP2
4148;SDS011;2088;51.032;7.082;2022-11-15T00:01:49;6.00;;;4.47;;
4148;SDS011;2088;51.032;7.082;2022-11-15T00:04:15;5.33;;;3.60;;
4148;SDS011;2088;51.032;7.082;2022-11-15T00:06:42;8.10;;;4.33;;
4148;SDS011;2088;51.032;7.082;2022-11-15T00:09:10;7.67;;;5.00;;
4148;SDS011;2088;51.032;7.082;2022-11-15T00:11:36;5.73;;;4.50;;
4148;SDS011;2088;51.032;7.082;2022-11-15T00:14:03;9.33;;;4.30;;
4148;SDS011;2088;51.032;7.082;2022-11-15T00:16:29;9.00;;;4.37;;
4148;SDS011;2088;51.032;7.082;2022-11-15T00:18:56;7.67;;;4.30;;
4148;SDS011;2088;51.032;7.082;2022-11-15T00:21:23;5.83;;;4.47;;
4148;SDS011;2088;51.032;7.082;2022-11-15T00:23:49;6.27;;;3.83;;
4148;SDS011;2088;51.032;7.082;2022-11-15T00:26:17;11.30;;;4.40;;
4148;SDS011;2088;51.032;7.082;2022-11-15T00:28:43;8.70;;;5.13;;
4148;SDS011;2088;51.032;7.082;2022-11-15T00:31:11;8.60;;;5.00;;
4148;SDS011;2088;51.032;7.082;2022-11-15T00:33:39;9.83;;;4.53;;
4148;SDS011;2088;51.032;7.082;2022-11-15T00:36:09;8.73;;;5.33;;
4148;SDS011;2088;51.032;7.082;2022-11-15T00:38:36;8.43;;;5.50;;
4148;SDS011;2088;51.032;7.082;2022-11-15T00:41:04;8.10;;;4.50;;
4148;SDS011;2088;51.032;7.082;2022-11-15T00:43:33;9.20;;;3.97;;
4148;SDS011;2088;51.032;7.082;2022-11-15T00:45:59;9.97;;;4.77;;
4148;SDS011;2088;51.032;7.082;2022-11-15T00:48:27;8.67;;;4.37;;
4148;SDS011;2088;51.032;7.082;2022-11-15T00:50:53;9.67;;;3.97;;
4148;SDS011;2088;51.032;7.082;2022-11-15T00:53:20;9.90;;;5.17;;
4148;SDS011;2088;51.032;7.082;2022-11-15T00:55:46;8.57;;;4.27;;
4148;SDS011;2088;51.032;7.082;2022-11-15T00:58:13;9.17;;;4.73;;
4148;SDS011;2088;51.032;7.082;2022-11-15T01:00:41;17.73;;;5.50;;
4148;SDS011;2088;51.032;7.082;2022-11-15T01:03:07;9.70;;;5.23;;
4148;SDS011;2088;51.032;7.082;2022-11-15T01:05:36;9.70;;;4.70;;
4148;SDS011;2088;51.032;7.082;2022-11-15T01:08:03;4.60;;;4.13;;
4148;SDS011;2088;51.032;7.082;2022-11-15T01:10:29;10.20;;;4.80;;
4148;SDS011;2088;51.032;7.082;2022-11-15T01:12:56;8.27;;;4.63;;
4148;SDS011;2088;51.032;7.082;2022-11-15T01:15:23;6.93;;;3.97;;
4148;SDS011;2088;51.032;7.082;2022-11-15T01:17:51;9.70;;;3.87;;
4148;SDS011;2088;51.032;7.082;2022-11-15T01:20:17;6.50;;;4.93;;
4148;SDS011;2088;51.032;7.082;2022-11-15T01:22:44;5.50;;;4.27;;
4148;SDS011;2088;51.032;7.082;2022-11-15T01:25:11;7.57;;;4.77;;
4148;SDS011;2088;51.032;7.082;2022-11-15T01:27:37;10.60;;;4.90;;
4148;SDS011;2088;51.032;7.082;2022-11-15T01:30:04;10.33;;;4.17;;
4148;SDS011;2088;51.032;7.082;2022-11-15T01:32:32;6.63;;;4.50;;
4148;SDS011;2088;51.032;7.082;2022-11-15T01:34:59;9.63;;;4.13;;
4148;SDS011;2088;51.032;7.082;2022-11-15T01:37:26;9.90;;;5.00;;
4148;SDS011;2088;51.032;7.082;2022-11-15T01:39:52;10.00;;;4.43;;
4148;SDS011;2088;51.032;7.082;2022-11-15T01:42:19;7.00;;;4.50;;
4148;SDS011;2088;51.032;7.082;2022-11-15T01:44:46;11.60;;;5.00;;
4148;SDS011;2088;51.032;7.082;2022-11-15T01:47:14;5.70;;;3.97;;
4148;SDS011;2088;51.032;7.082;2022-11-15T01:49:45;6.73;;;5.30;;
4148;SDS011;2088;51.032;7.082;2022-11-15T01:52:19;7.00;;;4.70;;
4148;SDS011;2088;51.032;7.082;2022-11-15T01:54:48;8.13;;;4.20;;
4148;SDS011;2088;51.032;7.082;2022-11-15T01:57:18;7.03;;;4.83;;
4148;SDS011;2088;51.032;7.082;2022-11-15T01:59:45;7.80;;;5.17;;
4148;SDS011;2088;51.032;7.082;2022-11-15T02:02:12;5.83;;;4.20;;
4148;SDS011;2088;51.032;7.082;2022-11-15T02:04:40;8.73;;;4.80;;
4148;SDS011;2088;51.032;7.082;2022-11-15T02:07:08;14.33;;;3.97;;
4148;SDS011;2088;51.032;7.082;2022-11-15T02:09:38;9.73;;;3.60;;
4148;SDS011;2088;51.032;7.082;2022-11-15T02:12:06;10.43;;;3.90;;
4148;SDS011;2088;51.032;7.082;2022-11-15T02:14:34;6.73;;;4.30;;
4148;SDS011;2088;51.032;7.082;2022-11-15T02:17:06;8.17;;;4.90;;
4148;SDS011;2088;51.032;7.082;2022-11-15T02:20:00;8.57;;;5.23;;
4148;SDS011;2088;51.032;7.082;2022-11-15T02:22:51;7.83;;;4.17;;
4148;SDS011;2088;51.032;7.082;2022-11-15T02:25:38;6.80;;;4.63;;
4148;SDS011;2088;51.032;7.082;2022-11-15T02:28:16;9.00;;;4.50;;
4148;SDS011;2088;51.032;7.082;2022-11-15T02:31:07;16.70;;;4.93;;
4148;SDS011;2088;51.032;7.082;2022-11-15T02:33:42;6.10;;;3.77;;
4148;SDS011;2088;51.032;7.082;2022-11-15T02:36:15;7.03;;;4.60;;
4148;SDS011;2088;51.032;7.082;2022-11-15T02:38:52;8.83;;;4.63;;
4148;SDS011;2088;51.032;7.082;2022-11-15T02:41:25;5.27;;;4.20;;
4148;SDS011;2088;51.032;7.082;2022-11-15T02:43:59;6.43;;;4.47;;
4148;SDS011;2088;51.032;7.082;2022-11-15T02:46:33;6.00;;;4.17;;
4148;SDS011;2088;51.032;7.082;2022-11-15T02:49:20;5.87;;;4.23;;
4148;SDS011;2088;51.032;7.082;2022-11-15T02:51:48;4.50;;;3.43;;
4148;SDS011;2088;51.032;7.082;2022-11-15T02:54:18;6.90;;;3.73;;
4148;SDS011;2088;51.032;7.082;2022-11-15T02:56:47;6.93;;;3.97;;
4148;SDS011;2088;51.032;7.082;2022-11-15T02:59:21;5.17;;;3.80;;
4148;SDS011;2088;51.032;7.082;2022-11-15T03:02:04;6.03;;;3.53;;
4148;SDS011;2088;51.032;7.082;2022-11-15T03:04:42;11.07;;;3.87;;
4148;SDS011;2088;51.032;7.082;2022-11-15T03:07:11;4.30;;;3.10;;
4148;SDS011;2088;51.032;7.082;2022-11-15T03:09:46;7.63;;;4.00;;
4148;SDS011;2088;51.032;7.082;2022-11-15T03:12:20;7.30;;;3.93;;
4148;SDS011;2088;51.032;7.082;2022-11-15T03:14:55;6.10;;;3.30;;
4148;SDS011;2088;51.032;7.082;2022-11-15T03:17:25;10.93;;;4.40;;
4148;SDS011;2088;51.032;7.082;2022-11-15T03:19:56;6.70;;;4.03;;
4148;SDS011;2088;51.032;7.082;2022-11-15T03:22:25;3.70;;;3.10;;
4148;SDS011;2088;51.032;7.082;2022-11-15T03:24:56;4.10;;;3.07;;
4148;SDS011;2088;51.032;7.082;2022-11-15T03:27:27;5.70;;;3.20;;
4148;SDS011;2088;51.032;7.082;2022-11-15T03:29:58;6.00;;;3.77;;
4148;SDS011;2088;51.032;7.082;2022-11-15T03:32:29;4.50;;;3.60;;
4148;SDS011;2088;51.032;7.082;2022-11-15T03:34:58;4.97;;;3.30;;
4148;SDS011;2088;51.032;7.082;2022-11-15T03:37:29;4.27;;;3.40;;
4148;SDS011;2088;51.032;7.082;2022-11-15T03:40:01;6.37;;;2.97;;
4148;SDS011;2088;51.032;7.082;2022-11-15T03:42:30;3.67;;;3.33;;
4148;SDS011;2088;51.032;7.082;2022-11-15T03:45:03;12.27;;;3.83;;
4148;SDS011;2088;51.032;7.082;2022-11-15T03:47:41;7.27;;;3.80;;
4148;SDS011;2088;51.032;7.082;2022-11-15T03:50:11;6.57;;;3.27;;
4148;SDS011;2088;51.032;7.082;2022-11-15T03:52:40;4.90;;;4.37;;
4148;SDS011;2088;51.032;7.082;2022-11-15T03:55:08;6.23;;;3.70;;
4148;SDS011;2088;51.032;7.082;2022-11-15T03:57:37;4.80;;;3.60;;
4148;SDS011;2088;51.032;7.082;2022-11-15T04:00:04;5.30;;;4.43;;
4148;SDS011;2088;51.032;7.082;2022-11-15T04:02:31;4.37;;;3.70;;
4148;SDS011;2088;51.032;7.082;2022-11-15T04:04:59;4.30;;;3.43;;
4148;SDS011;2088;51.032;7.082;2022-11-15T04:07:26;5.10;;;3.93;;
4148;SDS011;2088;51.032;7.082;2022-11-15T04:09:52;5.20;;;4.60;;
4148;SDS011;2088;51.032;7.082;2022-11-15T04:12:31;5.50;;;4.00;;
4148;SDS011;2088;51.032;7.082;2022-11-15T04:15:00;6.80;;;4.20;;
4148;SDS011;2088;51.032;7.082;2022-11-15T04:17:35;6.37;;;4.43;;
4148;SDS011;2088;51.032;7.082;2022-11-15T04:20:04;4.87;;;4.17;;
4148;SDS011;2088;51.032;7.082;2022-11-15T04:22:51;4.30;;;3.80;;
4148;SDS011;2088;51.032;7.082;2022-11-15T04:25:36;18.70;;;4.67;;
4148;SDS011;2088;51.032;7.082;2022-11-15T04:28:03;6.10;;;3.87;;
4148;SDS011;2088;51.032;7.082;2022-11-15T04:30:30;5.30;;;3.93;;
4148;SDS011;2088;51.032;7.082;2022-11-15T04:32:56;5.47;;;4.37;;
4148;SDS011;2088;51.032;7.082;2022-11-15T04:35:24;5.13;;;3.90;;
4148;SDS011;2088;51.032;7.082;2022-11-15T04:37:50;6.37;;;4.70;;
4148;SDS011;2088;51.032;7.082;2022-11-15T04:40:17;7.47;;;4.27;;
4148;SDS011;2088;51.032;7.082;2022-11-15T04:42:44;7.40;;;5.20;;
4148;SDS011;2088;51.032;7.082;2022-11-15T04:45:10;7.03;;;4.60;;
4148;SDS011;2088;51.032;7.082;2022-11-15T04:47:37;4.77;;;4.03;;
4148;SDS011;2088;51.032;7.082;2022-11-15T04:50:04;7.10;;;4.70;;
4148;SDS011;2088;51.032;7.082;2022-11-15T04:52:32;5.83;;;4.73;;
4148;SDS011;2088;51.032;7.082;2022-11-15T04:54:59;4.87;;;4.13;;
4148;SDS011;2088;51.032;7.082;2022-11-15T04:57:25;7.03;;;3.87;;
4148;SDS011;2088;51.032;7.082;2022-11-15T04:59:52;6.53;;;3.63;;
4148;SDS011;2088;51.032;7.082;2022-11-15T05:02:18;5.53;;;4.70;;
4148;SDS011;2088;51.032;7.082;2022-11-15T05:04:45;9.67;;;3.87;;
4148;SDS011;2088;51.032;7.082;2022-11-15T05:07:11;7.53;;;5.17;;
4148;SDS011;2088;51.032;7.082;2022-11-15T05:09:39;7.47;;;4.57;;
4148;SDS011;2088;51.032;7.082;2022-11-15T05:12:05;7.47;;;4.40;;
4148;SDS011;2088;51.032;7.082;2022-11-15T05:14:32;7.00;;;4.40;;
4148;SDS011;2088;51.032;7.082;2022-11-15T05:16:58;5.03;;;4.07;;
4148;SDS011;2088;51.032;7.082;2022-11-15T05:19:25;5.53;;;3.60;;
4148;SDS011;2088;51.032;7.082;2022-11-15T05:21:51;6.90;;;3.00;;
4148;SDS011;2088;51.032;7.082;2022-11-15T05:24:17;6.27;;;4.30;;
4148;SDS011;2088;51.032;7.082;2022-11-15T05:26:45;6.70;;;3.43;;
4148;SDS011;2088;51.032;7.082;2022-11-15T05:29:12;6.00;;;4.77;;
4148;SDS011;2088;51.032;7.082;2022-11-15T05:31:39;5.77;;;3.77;;
4148;SDS011;2088;51.032;7.082;2022-11-15T05:34:07;4.07;;;2.63;;
4148;SDS011;2088;51.032;7.082;2022-11-15T05:36:34;7.90;;;3.97;;
4148;SDS011;2088;51.032;7.082;2022-11-15T05:39:03;3.40;;;3.03;;
4148;SDS011;2088;51.032;7.082;2022-11-15T05:41:32;3.20;;;2.40;;
4148;SDS011;2088;51.032;7.082;2022-11-15T05:44:02;3.13;;;2.57;;
4148;SDS011;2088;51.032;7.082;2022-11-15T05:46:33;3.53;;;2.83;;
4148;SDS011;2088;51.032;7.082;2022-11-15T05:49:01;3.33;;;2.87;;
4148;SDS011;2088;51.032;7.082;2022-11-15T05:51:28;4.93;;;3.40;;
4148;SDS011;2088;51.032;7.082;2022-11-15T05:53:55;2.93;;;2.47;;
4148;SDS011;2088;51.032;7.082;2022-11-15T05:56:24;6.37;;;3.10;;
4148;SDS011;2088;51.032;7.082;2022-11-15T05:58:51;3.70;;;2.60;;
4148;SDS011;2088;51.032;7.082;2022-11-15T06:01:20;3.67;;;2.77;;
4148;SDS011;2088;51.032;7.082;2022-11-15T06:03:48;3.13;;;2.83;;
4148;SDS011;2088;51.032;7.082;2022-11-15T06:06:14;3.80;;;3.10;;
4148;SDS011;2088;51.032;7.082;2022-11-15T06:08:40;3.33;;;2.70;;
4148;SDS011;2088;51.032;7.082;2022-11-15T06:11:07;2.73;;;2.43;;
4148;SDS011;2088;51.032;7.082;2022-11-15T06:13:34;4.17;;;2.90;;
4148;SDS011;2088;51.032;7.082;2022-11-15T06:16:00;4.47;;;3.07;;
4148;SDS011;2088;51.032;7.082;2022-11-15T06:18:31;3.43;;;3.13;;
4148;SDS011;2088;51.032;7.082;2022-11-15T06:20:58;9.57;;;3.40;;
4148;SDS011;2088;51.032;7.082;2022-11-15T06:23:25;3.00;;;2.30;;
4148;SDS011;2088;51.032;7.082;2022-11-15T06:25:51;3.60;;;2.70;;
4148;SDS011;2088;51.032;7.082;2022-11-15T06:28:18;2.73;;;2.50;;
4148;SDS011;2088;51.032;7.082;2022-11-15T06:30:44;4.17;;;2.77;;
4148;SDS011;2088;51.032;7.082;2022-11-15T06:33:11;2.57;;;2.37;;
4148;SDS011;2088;51.032;7.082;2022-11-15T06:35:39;2.50;;;2.10;;
4148;SDS011;2088;51.032;7.082;2022-11-15T06:38:06;3.50;;;2.50;;
4148;SDS011;2088;51.032;7.082;2022-11-15T06:40:34;3.10;;;2.83;;
4148;SDS011;2088;51.032;7.082;2022-11-15T06:43:02;3.83;;;2.50;;
4148;SDS011;2088;51.032;7.082;2022-11-15T06:45:29;2.97;;;2.67;;
4148;SDS011;2088;51.032;7.082;2022-11-15T06:47:56;3.30;;;1.80;;
4148;SDS011;2088;51.032;7.082;2022-11-15T06:50:23;2.73;;;2.33;;
4148;SDS011;2088;51.032;7.082;2022-11-15T06:52:51;2.60;;;2.40;;
4148;SDS011;2088;51.032;7.082;2022-11-15T06:55:17;4.77;;;2.87;;
4148;SDS011;2088;51.032;7.082;2022-11-15T06:57:47;2.50;;;2.30;;
4148;SDS011;2088;51.032;7.082;2022-11-15T07:00:15;6.93;;;2.70;;
4148;SDS011;2088;51.032;7.082;2022-11-15T07:02:43;3.10;;;2.43;;
4148;SDS011;2088;51.032;7.082;2022-11-15T07:05:09;1.60;;;1.50;;
4148;SDS011;2088;51.032;7.082;2022-11-15T07:07:36;3.53;;;2.23;;
4148;SDS011;2088;51.032;7.082;2022-11-15T07:10:04;3.60;;;2.30;;
4148;SDS011;2088;51.032;7.082;2022-11-15T07:12:32;2.47;;;2.10;;
4148;SDS011;2088;51.032;7.082;2022-11-15T07:14:58;5.77;;;3.00;;
4148;SDS011;2088;51.032;7.082;2022-11-15T07:17:25;2.33;;;1.97;;
4148;SDS011;2088;51.032;7.082;2022-11-15T07:19:51;4.40;;;2.30;;
4148;SDS011;2088;51.032;7.082;2022-11-15T07:22:18;3.03;;;1.90;;
4148;SDS011;2088;51.032;7.082;2022-11-15T07:24:44;2.37;;;1.93;;
4148;SDS011;2088;51.032;7.082;2022-11-15T07:27:12;2.43;;;2.10;;
4148;SDS011;2088;51.032;7.082;2022-11-15T07:29:38;2.40;;;2.00;;
4148;SDS011;2088;51.032;7.082;2022-11-15T07:32:05;4.23;;;2.13;;
4148;SDS011;2088;51.032;7.082;2022-11-15T07:34:31;3.43;;;2.70;;
4148;SDS011;2088;51.032;7.082;2022-11-15T07:36:58;2.37;;;2.17;;
4148;SDS011;2088;51.032;7.082;2022-11-15T07:39:24;3.50;;;2.10;;
4148;SDS011;2088;51.032;7.082;2022-11-15T07:41:50;5.57;;;2.17;;
4148;SDS011;2088;51.032;7.082;2022-11-15T07:44:39;6.30;;;2.83;;
4148;SDS011;2088;51.032;7.082;2022-11-15T07:47:05;3.87;;;2.43;;
4148;SDS011;2088;51.032;7.082;2022-11-15T07:49:32;4.90;;;1.83;;
4148;SDS011;2088;51.032;7.082;2022-11-15T07:51:58;2.20;;;1.87;;
4148;SDS011;2088;51.032;7.082;2022-11-15T07:54:24;3.90;;;1.77;;
4148;SDS011;2088;51.032;7.082;2022-11-15T07:56:51;2.10;;;1.70;;
4148;SDS011;2088;51.032;7.082;2022-11-15T07:59:17;1.73;;;1.50;;
4148;SDS011;2088;51.032;7.082;2022-11-15T08:01:46;2.60;;;1.77;;
4148;SDS011;2088;51.032;7.082;2022-11-15T08:04:12;3.13;;;1.40;;
4148;SDS011;2088;51.032;7.082;2022-11-15T08:06:39;2.83;;;2.07;;
4148;SDS011;2088;51.032;7.082;2022-11-15T08:09:05;3.20;;;2.23;;
4148;SDS011;2088;51.032;7.082;2022-11-15T08:11:31;2.20;;;1.70;;
4148;SDS011;2088;51.032;7.082;2022-11-15T08:13:58;3.37;;;1.67;;
4148;SDS011;2088;51.032;7.082;2022-11-15T08:16:25;3.77;;;1.73;;
4148;SDS011;2088;51.032;7.082;2022-11-15T08:18:52;2.60;;;1.60;;
4148;SDS011;2088;51.032;7.082;2022-11-15T08:21:19;6.40;;;1.47;;
4148;SDS011;2088;51.032;7.082;2022-11-15T08:23:47;1.33;;;1.23;;
4148;SDS011;2088;51.032;7.082;2022-11-15T08:26:13;3.07;;;1.50;;
4148;SDS011;2088;51.032;7.082;2022-11-15T08:28:40;5.90;;;1.60;;
4148;SDS011;2088;51.032;7.082;2022-11-15T08:31:06;1.33;;;1.23;;
4148;SDS011;2088;51.032;7.082;2022-11-15T08:33:33;2.70;;;1.80;;
4148;SDS011;2088;51.032;7.082;2022-11-15T08:36:01;2.90;;;1.50;;
4148;SDS011;2088;51.032;7.082;2022-11-15T08:38:27;2.67;;;1.50;;
4148;SDS011;2088;51.032;7.082;2022-11-15T08:40:58;1.73;;;1.37;;
4148;SDS011;2088;51.032;7.082;2022-11-15T08:43:27;2.07;;;1.30;;
4148;SDS011;2088;51.032;7.082;2022-11-15T08:45:55;1.93;;;1.30;;
4148;SDS011;2088;51.032;7.082;2022-11-15T08:48:21;1.50;;;1.40;;
4148;SDS011;2088;51.032;7.082;2022-11-15T08:50:48;1.30;;;1.20;;
4148;SDS011;2088;51.032;7.082;2022-11-15T08:53:16;2.73;;;1.50;;
4148;SDS011;2088;51.032;7.082;2022-11-15T08:55:42;1.67;;;1.20;;
4148;SDS011;2088;51.032;7.082;2022-11-15T08:58:09;4.07;;;1.40;;
4148;SDS011;2088;51.032;7.082;2022-11-15T09:00:35;1.93;;;1.43;;
4148;SDS011;2088;51.032;7.082;2022-11-15T09:03:03;1.40;;;1.00;;
4148;SDS011;2088;51.032;7.082;2022-11-15T09:05:30;1.10;;;1.00;;
4148;SDS011;2088;51.032;7.082;2022-11-15T09:07:56;1.77;;;1.00;;
4148;SDS011;2088;51.032;7.082;2022-11-15T09:10:24;2.80;;;1.67;;
4148;SDS011;2088;51.032;7.082;2022-11-15T09:12:51;1.60;;;1.50;;
4148;SDS011;2088;51.032;7.082;2022-11-15T09:15:17;3.90;;;1.50;;
4148;SDS011;2088;51.032;7.082;2022-11-15T09:17:44;1.73;;;1.60;;
4148;SDS011;2088;51.032;7.082;2022-11-15T09:20:11;1.60;;;1.50;;
4148;SDS011;2088;51.032;7.082;2022-11-15T09:22:37;2.03;;;1.40;;
4148;SDS011;2088;51.032;7.082;2022-11-15T09:25:05;1.00;;;0.90;;
4148;SDS011;2088;51.032;7.082;2022-11-15T09:27:33;1.83;;;1.10;;
4148;SDS011;2088;51.032;7.082;2022-11-15T09:30:00;1.60;;;1.17;;
4148;SDS011;2088;51.032;7.082;2022-11-15T09:32:27;2.67;;;1.27;;
4148;SDS011;2088;51.032;7.082;2022-11-15T09:34:55;1.43;;;1.30;;
4148;SDS011;2088;51.032;7.082;2022-11-15T09:37:21;2.03;;;1.47;;
4148;SDS011;2088;51.032;7.082;2022-11-15T09:39:48;5.90;;;1.40;;
4148;SDS011;2088;51.032;7.082;2022-11-15T09:42:25;3.23;;;1.40;;
4148;SDS011;2088;51.032;7.082;2022-11-15T09:45:14;2.20;;;0.90;;
4148;SDS011;2088;51.032;7.082;2022-11-15T09:48:00;2.30;;;1.03;;
4148;SDS011;2088;51.032;7.082;2022-11-15T09:50:41;2.17;;;1.20;;
4148;SDS011;2088;51.032;7.082;2022-11-15T09:53:12;2.10;;;1.00;;
4148;SDS011;2088;51.032;7.082;2022-11-15T09:55:44;2.37;;;1.00;;
4148;SDS011;2088;51.032;7.082;2022-11-15T09:58:18;2.60;;;1.20;;
4148;SDS011;2088;51.032;7.082;2022-11-15T10:00:52;3.60;;;1.17;;
4148;SDS011;2088;51.032;7.082;2022-11-15T10:03:20;2.30;;;1.37;;
4148;SDS011;2088;51.032;7.082;2022-11-15T10:05:52;6.73;;;1.20;;
4148;SDS011;2088;51.032;7.082;2022-11-15T10:11:20;6.37;;;1.27;;
4148;SDS011;2088;51.032;7.082;2022-11-15T10:13:52;1.00;;;0.90;;
4148;SDS011;2088;51.032;7.082;2022-11-15T10:16:26;1.00;;;0.83;;
4148;SDS011;2088;51.032;7.082;2022-11-15T10:19:16;1.83;;;1.30;;
4148;SDS011;2088;51.032;7.082;2022-11-15T10:21:51;2.00;;;0.80;;
4148;SDS011;2088;51.032;7.082;2022-11-15T10:24:27;2.03;;;0.90;;
4148;SDS011;2088;51.032;7.082;2022-11-15T10:26:54;1.60;;;0.70;;
4148;SDS011;2088;51.032;7.082;2022-11-15T10:29:23;2.30;;;1.03;;
4148;SDS011;2088;51.032;7.082;2022-11-15T10:31:51;1.20;;;1.00;;
4148;SDS011;2088;51.032;7.082;2022-11-15T10:34:18;1.00;;;0.80;;
4148;SDS011;2088;51.032;7.082;2022-11-15T10:36:46;5.00;;;1.30;;
4148;SDS011;2088;51.032;7.082;2022-11-15T10:39:20;1.50;;;0.80;;
4148;SDS011;2088;51.032;7.082;2022-11-15T10:41:46;1.20;;;0.90;;
4148;SDS011;2088;51.032;7.082;2022-11-15T10:44:20;1.60;;;0.90;;
4148;SDS011;2088;51.032;7.082;2022-11-15T10:49:53;2.63;;;0.90;;
4148;SDS011;2088;51.032;7.082;2022-11-15T10:52:21;1.30;;;0.60;;
4148;SDS011;2088;51.032;7.082;2022-11-15T10:54:50;3.03;;;0.90;;
4148;SDS011;2088;51.032;7.082;2022-11-15T10:57:20;5.60;;;1.00;;
4148;SDS011;2088;51.032;7.082;2022-11-15T10:59:52;2.17;;;1.10;;
4148;SDS011;2088;51.032;7.082;2022-11-15T11:02:24;1.17;;;0.80;;
4148;SDS011;2088;51.032;7.082;2022-11-15T11:04:55;1.87;;;1.07;;
4148;SDS011;2088;51.032;7.082;2022-11-15T11:07:22;1.00;;;0.80;;
4148;SDS011;2088;51.032;7.082;2022-11-15T11:09:56;5.83;;;1.00;;
4148;SDS011;2088;51.032;7.082;2022-11-15T11:12:26;1.33;;;0.90;;
4148;SDS011;2088;51.032;7.082;2022-11-15T11:14:56;0.90;;;0.60;;
4148;SDS011;2088;51.032;7.082;2022-11-15T11:17:26;2.10;;;1.00;;
4148;SDS011;2088;51.032;7.082;2022-11-15T11:20:05;1.90;;;0.80;;
4148;SDS011;2088;51.032;7.082;2022-11-15T11:22:38;1.00;;;0.90;;
4148;SDS011;2088;51.032;7.082;2022-11-15T11:25:23;4.93;;;0.70;;
4148;SDS011;2088;51.032;7.082;2022-11-15T11:28:04;2.17;;;0.80;;
4148;SDS011;2088;51.032;7.082;2022-11-15T11:30:45;3.57;;;1.77;;
4148;SDS011;2088;51.032;7.082;2022-11-15T11:33:18;1.50;;;1.30;;
4148;SDS011;2088;51.032;7.082;2022-11-15T11:35:56;2.33;;;0.80;;
4148;SDS011;2088;51.032;7.082;2022-11-15T11:38:42;1.10;;;0.70;;
4148;SDS011;2088;51.032;7.082;2022-11-15T11:41:19;1.00;;;0.60;;
4148;SDS011;2088;51.032;7.082;2022-11-15T11:43:57;1.77;;;0.70;;
4148;SDS011;2088;51.032;7.082;2022-11-15T11:46:37;3.97;;;0.80;;
4148;SDS011;2088;51.032;7.082;2022-11-15T11:49:15;2.23;;;0.80;;
4148;SDS011;2088;51.032;7.082;2022-11-15T11:51:45;1.73;;;0.83;;
4148;SDS011;2088;51.032;7.082;2022-11-15T11:54:19;0.90;;;0.60;;
4148;SDS011;2088;51.032;7.082;2022-11-15T11:56:50;1.80;;;0.70;;
4148;SDS011;2088;51.032;7.082;2022-11-15T11:59:19;0.90;;;0.70;;
4148;SDS011;2088;51.032;7.082;2022-11-15T12:01:53;3.30;;;0.83;;
4148;SDS011;2088;51.032;7.082;2022-11-15T12:04:21;3.13;;;1.00;;
4148;SDS011;2088;51.032;7.082;2022-11-15T12:06:53;3.57;;;0.90;;
4148;SDS011;2088;51.032;7.082;2022-11-15T12:09:26;1.57;;;0.70;;
4148;SDS011;2088;51.032;7.082;2022-11-15T12:12:00;2.73;;;1.00;;
4148;SDS011;2088;51.032;7.082;2022-11-15T12:14:32;2.77;;;0.70;;
4148;SDS011;2088;51.032;7.082;2022-11-15T12:17:05;2.07;;;0.80;;
4148;SDS011;2088;51.032;7.082;2022-11-15T12:19:31;4.10;;;1.17;;
4148;SDS011;2088;51.032;7.082;2022-11-15T12:22:00;1.10;;;0.70;;
4148;SDS011;2088;51.032;7.082;2022-11-15T12:24:32;3.33;;;0.77;;
4148;SDS011;2088;51.032;7.082;2022-11-15T12:27:05;6.70;;;1.10;;
4148;SDS011;2088;51.032;7.082;2022-11-15T12:29:35;1.10;;;0.63;;
4148;SDS011;2088;51.032;7.082;2022-11-15T12:32:11;9.53;;;1.30;;
4148;SDS011;2088;51.032;7.082;2022-11-15T12:34:45;2.90;;;0.90;;
4148;SDS011;2088;51.032;7.082;2022-11-15T12:40:18;1.47;;;0.80;;
4148;SDS011;2088;51.032;7.082;2022-11-15T12:43:00;6.43;;;1.00;;
4148;SDS011;2088;51.032;7.082;2022-11-15T12:45:50;4.63;;;0.87;;
4148;SDS011;2088;51.032;7.082;2022-11-15T12:57:37;2.30;;;0.83;;
4148;SDS011;2088;51.032;7.082;2022-11-15T13:03:17;1.03;;;0.70;;
4148;SDS011;2088;51.032;7.082;2022-11-15T13:05:51;6.30;;;1.77;;
4148;SDS011;2088;51.032;7.082;2022-11-15T13:08:35;1.47;;;0.90;;
4148;SDS011;2088;51.032;7.082;2022-11-15T13:17:28;3.57;;;1.03;;
4148;SDS011;2088;51.032;7.082;2022-11-15T13:20:02;2.50;;;1.10;;
4148;SDS011;2088;51.032;7.082;2022-11-15T13:22:43;1.40;;;1.00;;
4148;SDS011;2088;51.032;7.082;2022-11-15T13:25:18;4.47;;;1.00;;
4148;SDS011;2088;51.032;7.082;2022-11-15T13:27:49;2.50;;;0.90;;
4148;SDS011;2088;51.032;7.082;2022-11-15T13:30:21;2.60;;;1.30;;
4148;SDS011;2088;51.032;7.082;2022-11-15T13:32:49;1.20;;;0.70;;
4148;SDS011;2088;51.032;7.082;2022-11-15T13:35:21;2.90;;;1.10;;
4148;SDS011;2088;51.032;7.082;2022-11-15T13:37:49;1.33;;;1.00;;
4148;SDS011;2088;51.032;7.082;2022-11-15T13:40:20;2.70;;;1.37;;
4148;SDS011;2088;51.032;7.082;2022-11-15T13:42:49;2.93;;;1.40;;
4148;SDS011;2088;51.032;7.082;2022-11-15T13:45:17;8.30;;;1.80;;
4148;SDS011;2088;51.032;7.082;2022-11-15T13:47:47;2.23;;;1.47;;
4148;SDS011;2088;51.032;7.082;2022-11-15T13:50:17;2.77;;;1.60;;
4148;SDS011;2088;51.032;7.082;2022-11-15T13:52:47;1.97;;;1.43;;
4148;SDS011;2088;51.032;7.082;2022-11-15T13:55:15;2.23;;;1.57;;
4148;SDS011;2088;51.032;7.082;2022-11-15T13:57:45;1.57;;;1.33;;
4148;SDS011;2088;51.032;7.082;2022-11-15T14:00:32;2.13;;;1.20;;
4148;SDS011;2088;51.032;7.082;2022-11-15T14:03:19;2.60;;;1.50;;
4148;SDS011;2088;51.032;7.082;2022-11-15T14:06:00;1.57;;;1.27;;
4148;SDS011;2088;51.032;7.082;2022-11-15T14:08:31;2.07;;;1.70;;
4148;SDS011;2088;51.032;7.082;2022-11-15T14:11:08;3.23;;;1.60;;
4148;SDS011;2088;51.032;7.082;2022-11-15T14:13:39;2.07;;;1.60;;
4148;SDS011;2088;51.032;7.082;2022-11-15T14:16:13;5.57;;;2.10;;
4148;SDS011;2088;51.032;7.082;2022-11-15T14:18:44;1.97;;;1.50;;
4148;SDS011;2088;51.032;7.082;2022-11-15T14:21:12;1.97;;;1.80;;
4148;SDS011;2088;51.032;7.082;2022-11-15T14:23:39;2.13;;;1.30;;
4148;SDS011;2088;51.032;7.082;2022-11-15T14:26:10;2.00;;;1.33;;
4148;SDS011;2088;51.032;7.082;2022-11-15T14:28:51;2.20;;;1.50;;
4148;SDS011;2088;51.032;7.082;2022-11-15T14:31:18;2.53;;;1.50;;
4148;SDS011;2088;51.032;7.082;2022-11-15T14:33:47;3.13;;;1.90;;
4148;SDS011;2088;51.032;7.082;2022-11-15T14:36:15;4.90;;;1.93;;
4148;SDS011;2088;51.032;7.082;2022-11-15T14:38:43;6.10;;;1.53;;
4148;SDS011;2088;51.032;7.082;2022-11-15T14:41:12;2.87;;;1.60;;
4148;SDS011;2088;51.032;7.082;2022-11-15T14:43:46;2.17;;;1.57;;
4148;SDS011;2088;51.032;7.082;2022-11-15T14:46:12;2.23;;;1.50;;
4148;SDS011;2088;51.032;7.082;2022-11-15T14:48:39;2.67;;;1.90;;
4148;SDS011;2088;51.032;7.082;2022-11-15T14:51:10;1.70;;;1.50;;
4148;SDS011;2088;51.032;7.082;2022-11-15T14:53:38;1.47;;;1.30;;
4148;SDS011;2088;51.032;7.082;2022-11-15T14:56:05;5.17;;;1.30;;
4148;SDS011;2088;51.032;7.082;2022-11-15T14:58:31;3.10;;;1.67;;
4148;SDS011;2088;51.032;7.082;2022-11-15T15:00:58;2.67;;;2.13;;
4148;SDS011;2088;51.032;7.082;2022-11-15T15:03:24;7.43;;;1.10;;
4148;SDS011;2088;51.032;7.082;2022-11-15T15:05:51;1.30;;;1.20;;
4148;SDS011;2088;51.032;7.082;2022-11-15T15:08:19;1.33;;;1.23;;
4148;SDS011;2088;51.032;7.082;2022-11-15T15:10:45;1.23;;;1.10;;
4148;SDS011;2088;51.032;7.082;2022-11-15T15:13:15;1.10;;;1.00;;
4148;SDS011;2088;51.032;7.082;2022-11-15T15:15:43;1.93;;;1.47;;
4148;SDS011;2088;51.032;7.082;2022-11-15T15:18:10;2.40;;;1.87;;
4148;SDS011;2088;51.032;7.082;2022-11-15T15:20:36;3.23;;;1.33;;
4148;SDS011;2088;51.032;7.082;2022-11-15T15:23:05;8.60;;;1.90;;
4148;SDS011;2088;51.032;7.082;2022-11-15T15:25:33;4.07;;;1.30;;
4148;SDS011;2088;51.032;7.082;2022-11-15T15:28:01;2.53;;;1.20;;
4148;SDS011;2088;51.032;7.082;2022-11-15T15:30:28;5.23;;;1.63;;
4148;SDS011;2088;51.032;7.082;2022-11-15T15:32:56;3.23;;;1.97;;
4148;SDS011;2088;51.032;7.082;2022-11-15T15:35:22;6.83;;;1.50;;
4148;SDS011;2088;51.032;7.082;2022-11-15T15:37:50;4.53;;;1.57;;
4148;SDS011;2088;51.032;7.082;2022-11-15T15:40:17;2.60;;;1.30;;
4148;SDS011;2088;51.032;7.082;2022-11-15T15:42:46;3.30;;;1.73;;
4148;SDS011;2088;51.032;7.082;2022-11-15T15:45:13;1.40;;;1.30;;
4148;SDS011;2088;51.032;7.082;2022-11-15T15:47:40;2.20;;;1.50;;
4148;SDS011;2088;51.032;7.082;2022-11-15T15:50:12;2.47;;;1.43;;
4148;SDS011;2088;51.032;7.082;2022-11-15T15:52:45;1.90;;;1.20;;
4148;SDS011;2088;51.032;7.082;2022-11-15T15:55:12;2.23;;;1.70;;
4148;SDS011;2088;51.032;7.082;2022-11-15T15:57:39;5.23;;;1.50;;
4148;SDS011;2088;51.032;7.082;2022-11-15T16:00:08;2.63;;;2.00;;